North Portal, Canada
Current Conditions -  °F | °C
As of 11:00 PM on Wednesday 17 Dec 2014 (Local Time) from CYEN Reporting Station
Light Snow Light Snow  
Wind Chill:   Ceiling: 1200
Heat Index: 16°   Visibility: 15mi
Dew Point: 12°   Wind: 10mph
Humidity: 86%   Direction: 170°S
Pressure: 30.08"   Gusts: 18mph
Location:  49°N, 102.55°W
Report Text: CYEN 180500Z 17009G16KT 15SM -SN OVC012 M09/M11 A3008 RMK SC8SLP230
Loading
Personal Weather Stations






























Interactive Weather Map New forecast layout! Learn more

10-Day Weather Forecast

Advertisements
Track Severe Weather on mobile